createdAt,value
2023-05-04T00:00:58.402Z,100840.59
2023-05-04T00:03:24.908Z,100838.78
2023-05-04T00:05:51.552Z,100843.94
2023-05-04T00:08:18.038Z,100843.47
2023-05-04T00:10:44.388Z,100843.47
2023-05-04T00:13:10.907Z,100836.75
2023-05-04T00:15:37.694Z,100843.94
2023-05-04T00:18:04.438Z,100839.50
2023-05-04T00:20:30.913Z,100843.22
2023-05-04T00:22:57.265Z,100836.28
2023-05-04T00:25:23.617Z,100840.09
2023-05-04T00:27:50.115Z,100834.69
2023-05-04T00:30:16.546Z,100826.16
2023-05-04T00:32:42.989Z,100829.03
2023-05-04T00:35:09.542Z,100827.81
2023-05-04T00:37:35.929Z,100823.22
2023-05-04T00:40:02.560Z,100821.09
2023-05-04T00:42:29.057Z,100824.94
2023-05-04T00:44:55.424Z,100815.31
2023-05-04T00:47:22.541Z,100820.22
2023-05-04T00:49:49.242Z,100816.28
2023-05-04T00:52:16.941Z,100820.69
2023-05-04T00:54:46.388Z,100810.97
2023-05-04T00:57:12.943Z,100813.88
2023-05-04T00:59:39.429Z,100813.81
2023-05-04T01:02:05.881Z,100817.94
2023-05-04T01:04:32.346Z,100816.25
2023-05-04T01:07:27.813Z,100819.16
2023-05-04T01:10:02.064Z,100811.63
2023-05-04T01:12:39.105Z,100817.34
2023-05-04T01:15:06.298Z,100826.34
2023-05-04T01:17:32.753Z,100821.03
2023-05-04T01:19:59.426Z,100820.97
2023-05-04T01:22:26.458Z,100814.03
2023-05-04T01:24:52.913Z,100808.69
2023-05-04T01:27:26.548Z,100805.66
2023-05-04T01:30:08.841Z,100807.81
2023-05-04T01:32:37.699Z,100809.91
2023-05-04T01:35:04.868Z,100818.34
2023-05-04T01:37:31.228Z,100813.66
2023-05-04T01:39:57.583Z,100821.72
2023-05-04T01:42:23.994Z,100811.91
2023-05-04T01:44:50.464Z,100830.56
2023-05-04T01:47:16.901Z,100826.44
2023-05-04T01:49:43.289Z,100822.00
2023-05-04T01:52:10.154Z,100822.75
2023-05-04T01:54:36.603Z,100818.91
2023-05-04T01:57:03.097Z,100821.38
2023-05-04T01:59:30.247Z,100821.69
2023-05-04T02:01:56.633Z,100818.94
2023-05-04T02:04:23.164Z,100821.94
2023-05-04T02:06:49.568Z,100816.19
2023-05-04T02:09:16.535Z,100812.84
2023-05-04T02:11:42.982Z,100811.91
2023-05-04T02:14:10.020Z,100812.72
2023-05-04T02:16:36.498Z,100814.06
2023-05-04T02:19:02.966Z,100821.03
2023-05-04T02:21:29.705Z,100835.00
2023-05-04T02:23:56.071Z,100824.66
2023-05-04T02:26:22.525Z,100824.53
2023-05-04T02:28:48.952Z,100819.13
2023-05-04T02:31:15.355Z,100818.06
2023-05-04T02:33:41.751Z,100821.94
2023-05-04T02:36:08.337Z,100820.03
2023-05-04T02:38:37.569Z,100825.91
2023-05-04T02:41:03.945Z,100829.25
2023-05-04T02:43:30.655Z,100825.31
2023-05-04T02:45:57.138Z,100826.06
2023-05-04T02:48:24.934Z,100825.41
2023-05-04T02:50:51.834Z,100822.03
2023-05-04T02:53:18.303Z,100819.88
2023-05-04T02:55:44.656Z,100822.75
2023-05-04T02:58:11.374Z,100822.47
2023-05-04T03:00:37.728Z,100816.31
2023-05-04T03:03:04.261Z,100824.25
2023-05-04T03:05:30.657Z,100822.06
2023-05-04T03:07:57.057Z,100823.03
2023-05-04T03:10:23.456Z,100827.09
2023-05-04T03:12:49.832Z,100819.06
2023-05-04T03:15:16.626Z,100822.16
2023-05-04T03:17:43.394Z,100816.78
2023-05-04T03:20:10.278Z,100819.41
2023-05-04T03:22:36.635Z,100825.88
2023-05-04T03:25:02.996Z,100819.75
2023-05-04T03:27:29.343Z,100826.09
2023-05-04T03:29:55.727Z,100824.25
2023-05-04T03:32:22.076Z,100819.72
2023-05-04T03:34:48.412Z,100822.28
2023-05-04T03:37:15.196Z,100823.94
2023-05-04T03:39:41.682Z,100814.28
2023-05-04T03:42:08.096Z,100810.28
2023-05-04T03:44:34.483Z,100816.38
2023-05-04T03:47:00.829Z,100820.81
2023-05-04T03:49:27.341Z,100816.56
2023-05-04T03:51:53.713Z,100813.75
2023-05-04T03:54:20.169Z,100822.06
2023-05-04T03:56:46.531Z,100808.78
2023-05-04T03:59:12.901Z,100814.47
2023-05-04T04:01:39.311Z,100816.16
2023-05-04T04:04:06.078Z,100813.66
2023-05-04T04:06:32.509Z,100820.06
2023-05-04T04:08:58.850Z,100818.91
2023-05-04T04:11:26.364Z,100817.44
2023-05-04T04:13:52.904Z,100812.56
2023-05-04T04:16:21.192Z,100815.13
2023-05-04T04:18:48.009Z,100810.28
2023-05-04T04:21:14.471Z,100804.78
2023-05-04T04:23:40.804Z,100809.50
2023-05-04T04:26:07.171Z,100803.44
2023-05-04T04:28:34.179Z,100803.44
2023-05-04T04:31:00.871Z,100806.25
2023-05-04T04:33:27.331Z,100811.94
2023-05-04T04:35:54.016Z,100814.25
2023-05-04T04:38:20.440Z,100813.19
2023-05-04T04:40:46.778Z,100815.13
2023-05-04T04:43:14.189Z,100818.03
2023-05-04T04:45:41.266Z,100822.84
2023-05-04T04:48:07.657Z,100813.81
2023-05-04T04:50:34.079Z,100814.03
2023-05-04T04:53:00.516Z,100816.84
2023-05-04T04:55:26.862Z,100820.31
2023-05-04T04:57:53.310Z,100819.75
2023-05-04T05:00:19.740Z,100827.34
2023-05-04T05:02:46.400Z,100824.38
2023-05-04T05:05:13.043Z,100826.53
2023-05-04T05:07:39.562Z,100819.59
2023-05-04T05:10:06.825Z,100825.31
2023-05-04T05:12:33.435Z,100823.91
2023-05-04T05:14:59.826Z,100824.13
2023-05-04T05:17:26.360Z,100821.47
2023-05-04T05:19:52.782Z,100818.59
2023-05-04T05:22:19.136Z,100818.69
2023-05-04T05:24:45.830Z,100819.06
2023-05-04T05:27:12.194Z,100817.31
2023-05-04T05:29:38.616Z,100809.09
2023-05-04T05:32:05.263Z,100808.25
2023-05-04T05:34:31.665Z,100808.84
2023-05-04T05:36:58.278Z,100810.28
2023-05-04T05:39:24.662Z,100802.78
2023-05-04T05:41:51.329Z,100802.31
2023-05-04T05:44:17.690Z,100803.28
2023-05-04T05:46:44.204Z,100799.94
2023-05-04T05:49:11.442Z,100804.03
2023-05-04T05:51:37.954Z,100805.84
2023-05-04T05:54:04.489Z,100799.00
2023-05-04T05:56:30.865Z,100802.63
2023-05-04T05:58:57.367Z,100807.44
2023-05-04T06:01:24.259Z,100807.69
2023-05-04T06:03:50.964Z,100804.31
2023-05-04T06:06:17.407Z,100809.47
2023-05-04T06:08:43.769Z,100804.06
2023-05-04T06:11:10.207Z,100803.19
2023-05-04T06:13:36.556Z,100797.19
2023-05-04T06:16:03.148Z,100790.03
2023-05-04T06:18:29.854Z,100789.88
2023-05-04T06:20:59.999Z,100792.03
2023-05-04T06:23:28.273Z,100779.31
2023-05-04T06:25:54.684Z,100779.47
2023-05-04T06:28:21.255Z,100778.19
2023-05-04T06:30:48.389Z,100775.44
2023-05-04T06:33:14.770Z,100773.34
2023-05-04T06:35:41.305Z,100774.03
2023-05-04T06:38:07.664Z,100777.16
2023-05-04T06:40:34.320Z,100778.31
2023-05-04T06:43:01.340Z,100779.44
2023-05-04T06:45:27.813Z,100780.59
2023-05-04T06:47:54.252Z,100776.84
2023-05-04T06:50:20.778Z,100770.03
2023-05-04T06:52:47.136Z,100777.16
2023-05-04T06:55:14.584Z,100779.22
2023-05-04T06:57:40.995Z,100775.19
2023-05-04T07:00:08.348Z,100779.78
2023-05-04T07:02:34.799Z,100776.44
2023-05-04T07:05:02.105Z,100764.13
2023-05-04T07:07:28.496Z,100767.22
2023-05-04T07:09:55.176Z,100772.97
2023-05-04T07:12:21.595Z,100769.22
2023-05-04T07:14:48.021Z,100765.03
2023-05-04T07:17:14.534Z,100774.81
2023-05-04T07:19:41.483Z,100769.25
2023-05-04T07:22:07.884Z,100759.88
2023-05-04T07:24:34.362Z,100755.69
2023-05-04T07:27:03.708Z,100750.53
2023-05-04T07:29:30.041Z,100757.78
2023-05-04T07:31:56.516Z,100748.00
2023-05-04T07:34:30.544Z,100743.22
2023-05-04T07:37:00.878Z,100736.25
2023-05-04T07:39:27.279Z,100740.69
2023-05-04T07:41:54.337Z,100736.88
2023-05-04T07:44:20.848Z,100730.44
2023-05-04T07:46:47.223Z,100729.00
2023-05-04T07:49:13.592Z,100715.94
2023-05-04T07:51:40.004Z,100725.84
2023-05-04T07:54:06.364Z,100724.63
2023-05-04T07:56:32.728Z,100723.34
2023-05-04T07:58:59.104Z,100720.09
2023-05-04T08:01:26.141Z,100723.53
2023-05-04T08:03:52.649Z,100715.25
2023-05-04T08:06:23.866Z,100722.03
2023-05-04T08:08:52.569Z,100719.44
2023-05-04T08:11:20.865Z,100716.91
2023-05-04T08:13:51.065Z,100717.66
2023-05-04T08:16:17.702Z,100709.06
2023-05-04T08:18:44.055Z,100720.56
2023-05-04T08:21:10.587Z,100713.09
2023-05-04T08:23:36.986Z,100706.16
2023-05-04T08:26:06.132Z,100708.97
2023-05-04T08:28:38.153Z,100701.56
2023-05-04T08:31:04.563Z,100695.38
2023-05-04T08:33:31.907Z,100700.09
2023-05-04T08:35:58.409Z,100705.81
2023-05-04T08:38:24.783Z,100696.69
2023-05-04T08:40:51.193Z,100696.56
2023-05-04T08:43:17.618Z,100693.94
2023-05-04T08:45:45.216Z,100688.31
2023-05-04T08:48:11.673Z,100697.88
2023-05-04T08:50:38.312Z,100685.72
2023-05-04T08:53:12.022Z,100691.94
2023-05-04T08:55:39.420Z,100685.78
2023-05-04T08:58:09.958Z,100690.88
2023-05-04T09:00:37.986Z,100688.91
2023-05-04T09:03:05.973Z,100684.22
2023-05-04T09:05:32.680Z,100697.56
2023-05-04T09:07:59.167Z,100688.25
2023-05-04T09:10:26.848Z,100699.56
2023-05-04T09:12:56.072Z,100688.94
2023-05-04T09:15:23.576Z,100687.59
2023-05-04T09:18:02.322Z,100678.94
2023-05-04T09:20:30.624Z,100677.59
2023-05-04T09:23:07.987Z,100681.63
2023-05-04T09:25:50.889Z,100676.28
2023-05-04T09:28:18.742Z,100666.44
2023-05-04T09:30:48.276Z,100669.28
2023-05-04T09:33:25.744Z,100680.63
2023-05-04T09:35:52.098Z,100674.63
2023-05-04T09:38:29.559Z,100670.63
2023-05-04T09:40:56.502Z,100670.94
2023-05-04T09:43:24.463Z,100664.09
2023-05-04T09:45:51.436Z,100672.94
2023-05-04T09:48:25.676Z,100674.59
2023-05-04T09:50:53.706Z,100673.59
2023-05-04T09:53:23.053Z,100663.59
2023-05-04T09:55:55.969Z,100661.53
2023-05-04T09:58:23.435Z,100659.19
2023-05-04T10:00:49.975Z,100652.00
2023-05-04T10:03:16.633Z,100650.28
2023-05-04T10:05:43.058Z,100644.09
2023-05-04T10:08:09.868Z,100639.09
2023-05-04T10:10:38.930Z,100648.38
2023-05-04T10:13:05.541Z,100642.00
2023-05-04T10:15:32.878Z,100640.69
2023-05-04T10:18:15.234Z,100635.34
2023-05-04T10:21:06.008Z,100633.34
2023-05-04T10:23:44.835Z,100633.34
2023-05-04T10:26:40.481Z,100641.28
2023-05-04T10:29:24.989Z,100619.53
2023-05-04T10:31:53.264Z,100623.34
2023-05-04T10:34:35.273Z,100615.28
2023-05-04T10:37:03.042Z,100618.56
2023-05-04T10:39:31.468Z,100607.78
2023-05-04T10:42:06.521Z,100603.16
2023-05-04T10:44:35.168Z,100608.16
2023-05-04T10:47:05.931Z,100593.22
2023-05-04T10:49:34.627Z,100587.34
2023-05-04T10:52:12.474Z,100590.19
2023-05-04T10:54:40.874Z,100574.41
2023-05-04T10:57:14.705Z,100574.25
2023-05-04T10:59:41.705Z,100579.69
2023-05-04T11:02:08.507Z,100576.84
2023-05-04T11:04:36.235Z,100567.41
2023-05-04T11:07:05.534Z,100564.56
2023-05-04T11:09:39.580Z,100566.13
2023-05-04T11:12:07.356Z,100560.25
2023-05-04T11:14:37.749Z,100561.91
2023-05-04T11:17:23.980Z,100557.31
2023-05-04T11:19:53.553Z,100550.53
2023-05-04T11:22:20.209Z,100542.34
2023-05-04T11:24:48.637Z,100535.53
2023-05-04T11:27:23.259Z,100541.00
2023-05-04T11:30:00.440Z,100531.28
2023-05-04T11:32:40.741Z,100535.44
2023-05-04T11:35:18.791Z,100528.44
2023-05-04T11:37:46.629Z,100521.00
2023-05-04T11:40:15.118Z,100530.25
2023-05-04T11:42:42.861Z,100527.03
2023-05-04T11:45:09.658Z,100520.06
2023-05-04T11:47:37.806Z,100516.88
2023-05-04T11:50:06.439Z,100517.72
2023-05-04T11:52:36.187Z,100514.22
2023-05-04T11:55:03.287Z,100507.47
2023-05-04T11:57:31.753Z,100519.97
2023-05-04T11:59:58.153Z,100501.94
2023-05-04T12:02:25.792Z,100509.28
2023-05-04T12:04:52.688Z,100511.13
2023-05-04T12:07:19.102Z,100502.69
2023-05-04T12:09:46.914Z,100502.78
2023-05-04T12:12:16.273Z,100500.19
2023-05-04T12:14:51.834Z,100490.78
2023-05-04T12:17:20.263Z,100488.38
2023-05-04T12:19:57.336Z,100491.06
2023-05-04T12:22:32.826Z,100488.84
2023-05-04T12:25:00.317Z,100481.44
2023-05-04T12:27:27.583Z,100479.06
2023-05-04T12:29:54.227Z,100477.44
2023-05-04T12:32:21.670Z,100475.03
2023-05-04T12:34:48.044Z,100478.56
2023-05-04T12:37:14.383Z,100475.72
2023-05-04T12:39:40.752Z,100472.00
2023-05-04T12:42:07.142Z,100472.66
2023-05-04T12:44:34.670Z,100464.72
2023-05-04T12:47:01.563Z,100468.94
2023-05-04T12:49:27.948Z,100457.38
2023-05-04T12:51:54.296Z,100460.75
2023-05-04T12:54:21.098Z,100453.72
2023-05-04T12:56:47.601Z,100446.97
2023-05-04T12:59:14.028Z,100447.22
2023-05-04T13:01:41.469Z,100447.22
2023-05-04T13:04:07.988Z,100443.50
2023-05-04T13:06:34.579Z,100440.03
2023-05-04T13:09:03.877Z,100440.88
2023-05-04T13:11:30.313Z,100433.88
2023-05-04T13:13:56.689Z,100427.66
2023-05-04T13:16:23.127Z,100424.34
2023-05-04T13:18:49.668Z,100428.31
2023-05-04T13:21:16.015Z,100432.88
2023-05-04T13:23:42.540Z,100418.38
2023-05-04T13:26:08.946Z,100420.44
2023-05-04T13:28:37.203Z,100431.66
2023-05-04T13:31:05.764Z,100423.34
2023-05-04T13:33:33.015Z,100424.38
2023-05-04T13:36:01.924Z,100420.88
2023-05-04T13:38:28.409Z,100417.94
2023-05-04T13:40:55.202Z,100408.81
2023-05-04T13:43:22.516Z,100402.19
2023-05-04T13:45:48.984Z,100414.41
2023-05-04T13:48:15.406Z,100401.84
2023-05-04T13:50:42.020Z,100402.44
2023-05-04T13:53:10.916Z,100392.84
2023-05-04T13:55:37.429Z,100394.63
2023-05-04T13:58:04.028Z,100387.94
2023-05-04T14:00:30.409Z,100380.38
2023-05-04T14:02:57.104Z,100375.84
2023-05-04T14:05:23.586Z,100377.53
2023-05-04T14:07:51.629Z,100372.47
2023-05-04T14:10:18.066Z,100358.59
2023-05-04T14:12:44.685Z,100357.72
2023-05-04T14:15:11.404Z,100361.63
2023-05-04T14:17:39.485Z,100359.03
2023-05-04T14:20:07.219Z,100353.78
2023-05-04T14:22:35.070Z,100360.34
2023-05-04T14:25:04.010Z,100349.00
2023-05-04T14:27:34.383Z,100348.59
2023-05-04T14:30:04.411Z,100340.06
2023-05-04T14:32:30.830Z,100328.91
2023-05-04T14:35:06.647Z,100343.00
2023-05-04T14:37:36.230Z,100335.00
2023-05-04T14:40:06.191Z,100336.47
2023-05-04T14:42:33.119Z,100337.88
2023-05-04T14:44:59.675Z,100329.78
2023-05-04T14:47:27.437Z,100321.03
2023-05-04T14:49:54.222Z,100314.13
2023-05-04T14:52:20.748Z,100318.09
2023-05-04T14:54:47.167Z,100322.34
2023-05-04T14:57:13.524Z,100305.75
2023-05-04T14:59:40.305Z,100308.41
2023-05-04T15:02:08.085Z,100299.28
2023-05-04T15:04:34.837Z,100297.03
2023-05-04T15:07:01.301Z,100302.31
2023-05-04T15:09:27.692Z,100304.41
2023-05-04T15:11:54.044Z,100300.16
2023-05-04T15:14:21.301Z,100301.38
2023-05-04T15:16:47.681Z,100296.19
2023-05-04T15:19:14.070Z,100296.81
2023-05-04T15:21:41.565Z,100298.75
2023-05-04T15:24:07.997Z,100282.97
2023-05-04T15:26:34.583Z,100292.72
2023-05-04T15:29:01.071Z,100290.13
2023-05-04T15:31:27.546Z,100287.88
2023-05-04T15:33:53.981Z,100282.16
2023-05-04T15:36:20.435Z,100276.97
2023-05-04T15:38:46.841Z,100273.97
2023-05-04T15:41:14.159Z,100270.25
2023-05-04T15:43:40.605Z,100279.72
2023-05-04T15:46:07.029Z,100270.03
2023-05-04T15:48:33.381Z,100258.34
2023-05-04T15:50:59.891Z,100262.63
2023-05-04T15:53:27.089Z,100260.31
2023-05-04T15:55:53.469Z,100255.09
2023-05-04T15:58:19.860Z,100252.16
2023-05-04T16:00:49.674Z,100258.22
2023-05-04T16:03:16.172Z,100247.06
2023-05-04T16:05:43.392Z,100242.31
2023-05-04T16:08:09.758Z,100240.13
2023-05-04T16:10:36.194Z,100244.78
2023-05-04T16:13:04.338Z,100244.91
2023-05-04T16:15:31.086Z,100243.66
2023-05-04T16:17:57.527Z,100232.56
2023-05-04T16:20:24.086Z,100239.00
2023-05-04T16:22:50.440Z,100244.00
2023-05-04T16:25:16.824Z,100239.03
2023-05-04T16:27:43.351Z,100228.47
2023-05-04T16:30:10.337Z,100240.75
2023-05-04T16:32:36.974Z,100236.25
2023-05-04T16:35:03.797Z,100236.38
2023-05-04T16:37:30.234Z,100230.50
2023-05-04T16:39:56.673Z,100241.53
2023-05-04T16:42:23.092Z,100236.19
2023-05-04T16:44:49.441Z,100234.19
2023-05-04T16:47:16.252Z,100238.50
2023-05-04T16:49:42.672Z,100237.50
2023-05-04T16:52:09.036Z,100240.19
2023-05-04T16:54:35.746Z,100240.94
2023-05-04T16:57:02.140Z,100234.28
2023-05-04T16:59:29.253Z,100226.91
2023-05-04T17:01:56.371Z,100226.13
2023-05-04T17:04:25.119Z,100231.13
2023-05-04T17:06:51.515Z,100228.03
2023-05-04T17:09:17.868Z,100224.97
2023-05-04T17:11:44.302Z,100230.78
2023-05-04T17:14:10.935Z,100226.25
2023-05-04T17:16:37.729Z,100225.81
2023-05-04T17:19:04.182Z,100228.53
2023-05-04T17:21:31.208Z,100226.44
2023-05-04T17:23:57.569Z,100224.59
2023-05-04T17:26:23.950Z,100217.16
2023-05-04T17:28:51.581Z,100222.13
2023-05-04T17:31:18.005Z,100222.94
2023-05-04T17:33:44.540Z,100225.81
2023-05-04T17:36:12.040Z,100221.91
2023-05-04T17:38:39.547Z,100225.84
2023-05-04T17:41:06.209Z,100222.09
2023-05-04T17:43:33.906Z,100230.34
2023-05-04T17:46:00.333Z,100234.50
2023-05-04T17:48:27.799Z,100238.22
2023-05-04T17:50:54.165Z,100226.63
2023-05-04T17:53:20.812Z,100234.88
2023-05-04T17:55:47.211Z,100247.25
2023-05-04T17:58:13.637Z,100242.66
2023-05-04T18:00:40.049Z,100243.88
2023-05-04T18:03:06.777Z,100243.44
2023-05-04T18:05:33.446Z,100252.66
2023-05-04T18:07:59.790Z,100258.22
2023-05-04T18:10:26.682Z,100257.59
2023-05-04T18:12:53.202Z,100264.16
2023-05-04T18:15:19.744Z,100269.03
2023-05-04T18:17:46.206Z,100260.38
2023-05-04T18:20:13.127Z,100265.09
2023-05-04T18:22:39.585Z,100272.47
2023-05-04T18:25:06.734Z,100262.50
2023-05-04T18:27:34.284Z,100254.19
2023-05-04T18:30:01.559Z,100252.03
2023-05-04T18:32:27.955Z,100254.66
2023-05-04T18:34:54.676Z,100252.19
2023-05-04T18:37:21.593Z,100250.63
2023-05-04T18:39:48.041Z,100249.78
2023-05-04T18:42:14.516Z,100243.97
2023-05-04T18:44:40.916Z,100237.72
2023-05-04T18:47:08.061Z,100249.97
2023-05-04T18:49:34.448Z,100249.91
2023-05-04T18:52:01.646Z,100253.63
2023-05-04T18:54:34.499Z,100251.47
2023-05-04T18:57:01.056Z,100245.38
2023-05-04T18:59:27.557Z,100251.13
2023-05-04T19:01:53.946Z,100250.03
2023-05-04T19:04:20.416Z,100257.81
2023-05-04T19:06:47.713Z,100253.19
2023-05-04T19:09:14.657Z,100266.31
2023-05-04T19:11:41.355Z,100272.44
2023-05-04T19:14:07.717Z,100279.34
2023-05-04T19:16:34.111Z,100271.69
2023-05-04T19:19:00.481Z,100271.16
2023-05-04T19:21:27.729Z,100275.41
2023-05-04T19:23:54.303Z,100279.09
2023-05-04T19:26:20.721Z,100280.47
2023-05-04T19:28:47.133Z,100281.03
2023-05-04T19:31:13.949Z,100275.25
2023-05-04T19:33:48.103Z,100273.56
2023-05-04T19:36:16.033Z,100269.31
2023-05-04T19:38:42.435Z,100277.06
2023-05-04T19:41:08.858Z,100264.41
2023-05-04T19:43:35.324Z,100271.16
2023-05-04T19:46:02.502Z,100269.59
2023-05-04T19:48:28.851Z,100265.59
2023-05-04T19:50:55.969Z,100264.03
2023-05-04T19:53:22.357Z,100263.56
2023-05-04T19:55:48.733Z,100263.56
2023-05-04T19:58:15.262Z,100261.63
2023-05-04T20:00:41.664Z,100259.84
2023-05-04T20:03:08.239Z,100253.22
2023-05-04T20:05:34.960Z,100250.25
2023-05-04T20:08:04.207Z,100245.25
2023-05-04T20:10:31.496Z,100246.44
2023-05-04T20:12:57.881Z,100246.31
2023-05-04T20:15:24.477Z,100244.09
2023-05-04T20:17:50.905Z,100249.03
2023-05-04T20:20:20.214Z,100250.78
2023-05-04T20:22:48.985Z,100250.84
2023-05-04T20:25:15.536Z,100259.88
2023-05-04T20:27:41.908Z,100250.22
2023-05-04T20:30:08.629Z,100240.41
2023-05-04T20:32:35.236Z,100247.59
2023-05-04T20:35:01.760Z,100251.69
2023-05-04T20:37:28.447Z,100244.66
2023-05-04T20:39:55.296Z,100244.56
2023-05-04T20:42:22.013Z,100254.41
2023-05-04T20:44:48.448Z,100254.44
2023-05-04T20:47:15.024Z,100255.13
2023-05-04T20:49:41.501Z,100252.31
2023-05-04T20:52:08.148Z,100258.50
2023-05-04T20:54:34.515Z,100253.44
2023-05-04T20:57:01.560Z,100250.13
2023-05-04T20:59:28.082Z,100247.50
2023-05-04T21:01:54.516Z,100247.19
2023-05-04T21:04:21.029Z,100257.22
2023-05-04T21:06:48.334Z,100259.94
2023-05-04T21:09:15.448Z,100254.63
2023-05-04T21:11:41.991Z,100262.16
2023-05-04T21:14:08.435Z,100256.47
2023-05-04T21:16:34.913Z,100258.00
2023-05-04T21:19:01.443Z,100256.34
2023-05-04T21:21:27.808Z,100259.50
2023-05-04T21:23:54.191Z,100256.34
2023-05-04T21:26:20.723Z,100252.00
2023-05-04T21:28:47.383Z,100249.53
2023-05-04T21:31:13.794Z,100256.69
2023-05-04T21:33:40.362Z,100244.53
2023-05-04T21:36:16.271Z,100243.88
2023-05-04T21:38:43.050Z,100237.41
2023-05-04T21:41:13.754Z,100231.06
2023-05-04T21:43:43.234Z,100238.41
2023-05-04T21:46:11.558Z,100235.94
2023-05-04T21:48:38.336Z,100233.47
2023-05-04T21:51:05.044Z,100238.47
2023-05-04T21:53:33.562Z,100240.13
2023-05-04T21:56:01.292Z,100238.13
2023-05-04T21:58:28.688Z,100239.97
2023-05-04T22:00:55.608Z,100240.31
2023-05-04T22:03:22.108Z,100236.81
2023-05-04T22:06:00.450Z,100233.00
2023-05-04T22:08:28.021Z,100228.31
2023-05-04T22:10:56.846Z,100236.97
2023-05-04T22:13:23.308Z,100234.31
2023-05-04T22:15:50.580Z,100230.81
2023-05-04T22:18:17.756Z,100233.69
2023-05-04T22:20:44.480Z,100225.53
2023-05-04T22:23:11.174Z,100239.53
2023-05-04T22:25:38.019Z,100234.53
2023-05-04T22:28:04.803Z,100236.53
2023-05-04T22:30:31.370Z,100235.53
2023-05-04T22:32:58.000Z,100234.88
2023-05-04T22:35:24.594Z,100233.53
2023-05-04T22:37:51.265Z,100238.69
2023-05-04T22:40:18.116Z,100230.19
2023-05-04T22:42:47.536Z,100234.84
2023-05-04T22:45:14.918Z,100241.16
2023-05-04T22:47:42.094Z,100243.81
2023-05-04T22:50:09.555Z,100243.34
2023-05-04T22:52:37.087Z,100240.50
2023-05-04T22:55:04.069Z,100247.81
2023-05-04T22:57:30.646Z,100253.47
2023-05-04T22:59:57.037Z,100252.13
2023-05-04T23:02:23.726Z,100245.97
2023-05-04T23:04:50.222Z,100247.81
2023-05-04T23:07:16.584Z,100239.28
2023-05-04T23:09:45.228Z,100242.75
2023-05-04T23:12:12.500Z,100240.94
2023-05-04T23:14:39.211Z,100239.09
2023-05-04T23:17:05.908Z,100227.13
2023-05-04T23:19:32.608Z,100226.28
2023-05-04T23:21:59.364Z,100225.44
2023-05-04T23:24:25.957Z,100226.41
2023-05-04T23:26:52.455Z,100227.75
2023-05-04T23:29:22.004Z,100229.09
2023-05-04T23:31:48.359Z,100236.72
2023-05-04T23:34:14.753Z,100231.72
2023-05-04T23:36:41.116Z,100226.91
2023-05-04T23:39:08.374Z,100226.06
2023-05-04T23:41:35.078Z,100229.56
2023-05-04T23:44:01.818Z,100230.06
2023-05-04T23:46:28.424Z,100230.38
2023-05-04T23:48:54.946Z,100218.72
2023-05-04T23:51:21.436Z,100220.56
2023-05-04T23:53:47.831Z,100221.34
2023-05-04T23:56:14.493Z,100225.53
2023-05-04T23:58:41.639Z,100228.81
